sensor_id;sensor_type;location;lat;lon;timestamp;pressure;altitude;pressure_sealevel;temperature
72236;BMP280;60146;52.498;13.462;2022-07-10T00:00:08;101729.88;;;16.12
72236;BMP280;60146;52.498;13.462;2022-07-10T00:02:34;101729.78;;;16.04
72236;BMP280;60146;52.498;13.462;2022-07-10T00:04:59;101731.56;;;16.08
72236;BMP280;60146;52.498;13.462;2022-07-10T00:07:25;101730.31;;;16.19
72236;BMP280;60146;52.498;13.462;2022-07-10T00:09:50;101726.75;;;16.10
72236;BMP280;60146;52.498;13.462;2022-07-10T00:12:15;101735.28;;;16.20
72236;BMP280;60146;52.498;13.462;2022-07-10T00:14:41;101734.03;;;16.31
72236;BMP280;60146;52.498;13.462;2022-07-10T00:17:06;101736.41;;;16.32
72236;BMP280;60146;52.498;13.462;2022-07-10T00:19:31;101738.06;;;16.29
72236;BMP280;60146;52.498;13.462;2022-07-10T00:21:57;101736.00;;;16.39
72236;BMP280;60146;52.498;13.462;2022-07-10T00:24:22;101719.91;;;16.35
72236;BMP280;60146;52.498;13.462;2022-07-10T00:26:47;101724.22;;;16.45
72236;BMP280;60146;52.498;13.462;2022-07-10T00:29:13;101715.44;;;16.49
72236;BMP280;60146;52.498;13.462;2022-07-10T00:31:39;101722.38;;;16.45
72236;BMP280;60146;52.498;13.462;2022-07-10T00:34:04;101726.88;;;16.45
72236;BMP280;60146;52.498;13.462;2022-07-10T00:36:29;101722.19;;;16.42
72236;BMP280;60146;52.498;13.462;2022-07-10T00:38:54;101720.72;;;16.49
72236;BMP280;60146;52.498;13.462;2022-07-10T00:41:20;101721.19;;;16.38
72236;BMP280;60146;52.498;13.462;2022-07-10T00:44:14;101717.50;;;16.52
72236;BMP280;60146;52.498;13.462;2022-07-10T00:46:40;101712.78;;;16.49
72236;BMP280;60146;52.498;13.462;2022-07-10T00:49:06;101710.72;;;16.59
72236;BMP280;60146;52.498;13.462;2022-07-10T00:51:31;101706.50;;;16.58
72236;BMP280;60146;52.498;13.462;2022-07-10T00:53:59;101705.63;;;16.49
72236;BMP280;60146;52.498;13.462;2022-07-10T00:56:27;101700.75;;;16.43
72236;BMP280;60146;52.498;13.462;2022-07-10T00:58:53;101706.69;;;16.49
72236;BMP280;60146;52.498;13.462;2022-07-10T01:01:19;101700.53;;;16.40
72236;BMP280;60146;52.498;13.462;2022-07-10T01:03:46;101694.06;;;16.46
72236;BMP280;60146;52.498;13.462;2022-07-10T01:06:12;101698.75;;;16.35
72236;BMP280;60146;52.498;13.462;2022-07-10T01:08:38;101700.03;;;16.38
72236;BMP280;60146;52.498;13.462;2022-07-10T01:11:04;101695.13;;;16.45
72236;BMP280;60146;52.498;13.462;2022-07-10T01:13:30;101692.28;;;16.41
72236;BMP280;60146;52.498;13.462;2022-07-10T01:15:57;101692.09;;;16.38
72236;BMP280;60146;52.498;13.462;2022-07-10T01:18:22;101697.47;;;16.46
72236;BMP280;60146;52.498;13.462;2022-07-10T01:20:55;101690.44;;;16.42
72236;BMP280;60146;52.498;13.462;2022-07-10T01:23:21;101683.28;;;16.42
72236;BMP280;60146;52.498;13.462;2022-07-10T01:25:48;101691.72;;;16.44
72236;BMP280;60146;52.498;13.462;2022-07-10T01:28:13;101681.88;;;16.45
72236;BMP280;60146;52.498;13.462;2022-07-10T01:30:38;101678.38;;;16.36
72236;BMP280;60146;52.498;13.462;2022-07-10T01:33:04;101681.69;;;16.41
72236;BMP280;60146;52.498;13.462;2022-07-10T01:35:29;101678.97;;;16.33
72236;BMP280;60146;52.498;13.462;2022-07-10T01:37:54;101677.78;;;16.26
72236;BMP280;60146;52.498;13.462;2022-07-10T01:40:20;101673.69;;;16.33
72236;BMP280;60146;52.498;13.462;2022-07-10T01:42:45;101677.59;;;16.35
72236;BMP280;60146;52.498;13.462;2022-07-10T01:45:11;101679.75;;;16.33
72236;BMP280;60146;52.498;13.462;2022-07-10T01:47:37;101680.63;;;16.29
72236;BMP280;60146;52.498;13.462;2022-07-10T01:50:03;101676.41;;;16.28
72236;BMP280;60146;52.498;13.462;2022-07-10T01:52:30;101676.69;;;16.27
72236;BMP280;60146;52.498;13.462;2022-07-10T01:54:56;101680.75;;;16.24
72236;BMP280;60146;52.498;13.462;2022-07-10T01:57:21;101689.66;;;16.28
72236;BMP280;60146;52.498;13.462;2022-07-10T01:59:46;101683.84;;;16.26
72236;BMP280;60146;52.498;13.462;2022-07-10T02:02:11;101681.34;;;16.34
72236;BMP280;60146;52.498;13.462;2022-07-10T02:04:37;101680.63;;;16.29
72236;BMP280;60146;52.498;13.462;2022-07-10T02:07:09;101686.56;;;16.21
72236;BMP280;60146;52.498;13.462;2022-07-10T02:09:35;101679.34;;;16.27
72236;BMP280;60146;52.498;13.462;2022-07-10T02:12:01;101678.75;;;16.16
72236;BMP280;60146;52.498;13.462;2022-07-10T02:14:27;101679.63;;;16.25
72236;BMP280;60146;52.498;13.462;2022-07-10T02:16:52;101678.84;;;16.11
72236;BMP280;60146;52.498;13.462;2022-07-10T02:19:17;101683.94;;;16.21
72236;BMP280;60146;52.498;13.462;2022-07-10T02:21:43;101675.72;;;16.23
72236;BMP280;60146;52.498;13.462;2022-07-10T02:24:08;101672.81;;;16.24
72236;BMP280;60146;52.498;13.462;2022-07-10T02:26:34;101674.94;;;16.22
72236;BMP280;60146;52.498;13.462;2022-07-10T02:28:59;101673.06;;;16.23
72236;BMP280;60146;52.498;13.462;2022-07-10T02:31:24;101674.94;;;16.22
72236;BMP280;60146;52.498;13.462;2022-07-10T02:33:50;101663.47;;;16.27
72236;BMP280;60146;52.498;13.462;2022-07-10T02:36:15;101675.31;;;16.16
72236;BMP280;60146;52.498;13.462;2022-07-10T02:38:40;101665.72;;;16.20
72236;BMP280;60146;52.498;13.462;2022-07-10T02:41:05;101662.69;;;16.00
72236;BMP280;60146;52.498;13.462;2022-07-10T02:43:31;101661.09;;;15.99
72236;BMP280;60146;52.498;13.462;2022-07-10T02:45:56;101663.94;;;15.89
72236;BMP280;60146;52.498;13.462;2022-07-10T02:48:22;101662.66;;;15.87
72236;BMP280;60146;52.498;13.462;2022-07-10T02:50:47;101662.38;;;15.88
72236;BMP280;60146;52.498;13.462;2022-07-10T02:53:12;101664.78;;;15.85
72236;BMP280;60146;52.498;13.462;2022-07-10T02:55:38;101664.13;;;15.79
72236;BMP280;60146;52.498;13.462;2022-07-10T02:58:03;101664.41;;;15.78
72236;BMP280;60146;52.498;13.462;2022-07-10T03:00:29;101672.06;;;15.79
72236;BMP280;60146;52.498;13.462;2022-07-10T03:02:55;101670.84;;;15.72
72236;BMP280;60146;52.498;13.462;2022-07-10T03:05:21;101664.28;;;15.70
72236;BMP280;60146;52.498;13.462;2022-07-10T03:07:47;101665.06;;;15.70
72236;BMP280;60146;52.498;13.462;2022-07-10T03:10:12;101663.06;;;15.62
72236;BMP280;60146;52.498;13.462;2022-07-10T03:12:38;101669.66;;;15.65
72236;BMP280;60146;52.498;13.462;2022-07-10T03:15:05;101661.72;;;15.65
72236;BMP280;60146;52.498;13.462;2022-07-10T03:17:30;101665.91;;;15.66
72236;BMP280;60146;52.498;13.462;2022-07-10T03:19:56;101668.00;;;15.69
72236;BMP280;60146;52.498;13.462;2022-07-10T03:22:21;101664.38;;;15.65
72236;BMP280;60146;52.498;13.462;2022-07-10T03:24:47;101661.16;;;15.68
72236;BMP280;60146;52.498;13.462;2022-07-10T03:27:13;101662.22;;;15.67
72236;BMP280;60146;52.498;13.462;2022-07-10T03:29:39;101663.69;;;15.72
72236;BMP280;60146;52.498;13.462;2022-07-10T03:32:05;101664.59;;;15.81
72236;BMP280;60146;52.498;13.462;2022-07-10T03:34:31;101657.91;;;15.71
72236;BMP280;60146;52.498;13.462;2022-07-10T03:36:59;101659.06;;;15.65
72236;BMP280;60146;52.498;13.462;2022-07-10T03:39:24;101661.72;;;15.65
72236;BMP280;60146;52.498;13.462;2022-07-10T03:41:49;101659.00;;;15.70
72236;BMP280;60146;52.498;13.462;2022-07-10T03:44:15;101651.16;;;15.65
72236;BMP280;60146;52.498;13.462;2022-07-10T03:46:40;101655.94;;;15.63
72236;BMP280;60146;52.498;13.462;2022-07-10T03:49:05;101650.66;;;15.63
72236;BMP280;60146;52.498;13.462;2022-07-10T03:51:30;101656.94;;;15.67
72236;BMP280;60146;52.498;13.462;2022-07-10T03:53:56;101651.16;;;15.65
72236;BMP280;60146;52.498;13.462;2022-07-10T03:56:21;101656.34;;;15.70
72236;BMP280;60146;52.498;13.462;2022-07-10T03:59:05;101651.66;;;15.67
72236;BMP280;60146;52.498;13.462;2022-07-10T04:01:30;101648.31;;;15.74
72236;BMP280;60146;52.498;13.462;2022-07-10T04:03:56;101653.22;;;15.81
72236;BMP280;60146;52.498;13.462;2022-07-10T04:06:21;101656.88;;;15.85
72236;BMP280;60146;52.498;13.462;2022-07-10T04:08:46;101643.63;;;15.72
72236;BMP280;60146;52.498;13.462;2022-07-10T04:11:12;101653.44;;;15.84
72236;BMP280;60146;52.498;13.462;2022-07-10T04:13:37;101655.69;;;15.77
72236;BMP280;60146;52.498;13.462;2022-07-10T04:16:03;101649.03;;;15.80
72236;BMP280;60146;52.498;13.462;2022-07-10T04:18:28;101653.44;;;15.84
72236;BMP280;60146;52.498;13.462;2022-07-10T04:20:53;101656.56;;;15.86
72236;BMP280;60146;52.498;13.462;2022-07-10T04:23:19;101644.81;;;15.92
72236;BMP280;60146;52.498;13.462;2022-07-10T04:25:44;101651.31;;;15.99
72236;BMP280;60146;52.498;13.462;2022-07-10T04:28:10;101647.78;;;16.04
72236;BMP280;60146;52.498;13.462;2022-07-10T04:30:35;101651.31;;;16.12
72236;BMP280;60146;52.498;13.462;2022-07-10T04:33:01;101644.63;;;16.02
72236;BMP280;60146;52.498;13.462;2022-07-10T04:35:26;101655.22;;;16.02
72236;BMP280;60146;52.498;13.462;2022-07-10T04:37:51;101650.63;;;16.07
72236;BMP280;60146;52.498;13.462;2022-07-10T04:40:17;101648.06;;;16.02
72236;BMP280;60146;52.498;13.462;2022-07-10T04:42:42;101649.72;;;16.11
72236;BMP280;60146;52.498;13.462;2022-07-10T04:45:08;101650.91;;;16.06
72236;BMP280;60146;52.498;13.462;2022-07-10T04:47:33;101640.66;;;16.17
72236;BMP280;60146;52.498;13.462;2022-07-10T04:49:58;101647.78;;;16.04
72236;BMP280;60146;52.498;13.462;2022-07-10T04:52:24;101637.88;;;15.96
72236;BMP280;60146;52.498;13.462;2022-07-10T04:54:49;101641.72;;;16.16
72236;BMP280;60146;52.498;13.462;2022-07-10T04:57:15;101640.16;;;16.15
72236;BMP280;60146;52.498;13.462;2022-07-10T04:59:40;101644.38;;;16.16
72236;BMP280;60146;52.498;13.462;2022-07-10T05:02:05;101648.88;;;16.29
72236;BMP280;60146;52.498;13.462;2022-07-10T05:04:32;101646.44;;;16.19
72236;BMP280;60146;52.498;13.462;2022-07-10T05:06:57;101646.22;;;16.29
72236;BMP280;60146;52.498;13.462;2022-07-10T05:09:22;101636.56;;;16.25
72236;BMP280;60146;52.498;13.462;2022-07-10T05:11:48;101649.25;;;16.36
72236;BMP280;60146;52.498;13.462;2022-07-10T05:14:13;101648.78;;;16.34
72236;BMP280;60146;52.498;13.462;2022-07-10T05:16:38;101647.28;;;16.41
72236;BMP280;60146;52.498;13.462;2022-07-10T05:19:04;101649.53;;;16.48
72236;BMP280;60146;52.498;13.462;2022-07-10T05:21:29;101639.00;;;16.34
72236;BMP280;60146;52.498;13.462;2022-07-10T05:23:54;101650.75;;;16.42
72236;BMP280;60146;52.498;13.462;2022-07-10T05:26:20;101647.69;;;16.48
72236;BMP280;60146;52.498;13.462;2022-07-10T05:28:45;101652.56;;;16.54
72236;BMP280;60146;52.498;13.462;2022-07-10T05:31:10;101650.53;;;16.51
72236;BMP280;60146;52.498;13.462;2022-07-10T05:33:36;101647.78;;;16.56
72236;BMP280;60146;52.498;13.462;2022-07-10T05:36:03;101645.81;;;16.62
72236;BMP280;60146;52.498;13.462;2022-07-10T05:38:28;101644.41;;;16.64
72236;BMP280;60146;52.498;13.462;2022-07-10T05:40:54;101649.31;;;16.70
72236;BMP280;60146;52.498;13.462;2022-07-10T05:43:19;101642.66;;;16.73
72236;BMP280;60146;52.498;13.462;2022-07-10T05:45:45;101644.47;;;16.86
72236;BMP280;60146;52.498;13.462;2022-07-10T05:48:10;101643.06;;;16.88
72236;BMP280;60146;52.498;13.462;2022-07-10T05:50:35;101639.63;;;17.01
72236;BMP280;60146;52.498;13.462;2022-07-10T05:53:01;101650.88;;;17.06
72236;BMP280;60146;52.498;13.462;2022-07-10T05:55:26;101650.56;;;17.07
72236;BMP280;60146;52.498;13.462;2022-07-10T05:57:51;101647.72;;;17.25
72236;BMP280;60146;52.498;13.462;2022-07-10T06:00:18;101652.72;;;17.19
72236;BMP280;60146;52.498;13.462;2022-07-10T06:02:43;101658.06;;;17.27
72236;BMP280;60146;52.498;13.462;2022-07-10T06:05:08;101656.69;;;17.29
72236;BMP280;60146;52.498;13.462;2022-07-10T06:07:34;101652.94;;;17.09
72236;BMP280;60146;52.498;13.462;2022-07-10T06:10:00;101645.66;;;17.14
72236;BMP280;60146;52.498;13.462;2022-07-10T06:12:28;101641.03;;;17.06
72236;BMP280;60146;52.498;13.462;2022-07-10T06:14:53;101646.00;;;17.21
72236;BMP280;60146;52.498;13.462;2022-07-10T06:17:19;101635.78;;;17.28
72236;BMP280;60146;52.498;13.462;2022-07-10T06:19:44;101641.00;;;17.41
72236;BMP280;60146;52.498;13.462;2022-07-10T06:22:10;101650.13;;;17.27
72236;BMP280;60146;52.498;13.462;2022-07-10T06:24:54;101642.06;;;17.10
72236;BMP280;60146;52.498;13.462;2022-07-10T06:27:19;101642.34;;;17.09
72236;BMP280;60146;52.498;13.462;2022-07-10T06:29:45;101644.38;;;17.12
72236;BMP280;60146;52.498;13.462;2022-07-10T06:32:10;101642.72;;;17.37
72236;BMP280;60146;52.498;13.462;2022-07-10T06:34:36;101651.34;;;17.51
72236;BMP280;60146;52.498;13.462;2022-07-10T06:37:01;101643.69;;;17.49
72236;BMP280;60146;52.498;13.462;2022-07-10T06:39:31;101643.44;;;17.59
72236;BMP280;60146;52.498;13.462;2022-07-10T06:41:56;101649.31;;;17.78
72236;BMP280;60146;52.498;13.462;2022-07-10T06:44:22;101641.63;;;17.68
72236;BMP280;60146;52.498;13.462;2022-07-10T06:46:48;101646.25;;;17.84
72236;BMP280;60146;52.498;13.462;2022-07-10T06:49:33;101645.50;;;18.00
72236;BMP280;60146;52.498;13.462;2022-07-10T06:51:58;101649.94;;;18.13
72236;BMP280;60146;52.498;13.462;2022-07-10T06:54:24;101648.00;;;17.97
72236;BMP280;60146;52.498;13.462;2022-07-10T06:56:49;101651.25;;;17.94
72236;BMP280;60146;52.498;13.462;2022-07-10T06:59:14;101652.41;;;18.09
72236;BMP280;60146;52.498;13.462;2022-07-10T07:01:43;101652.13;;;18.11
72236;BMP280;60146;52.498;13.462;2022-07-10T07:04:08;101647.09;;;18.09
72236;BMP280;60146;52.498;13.462;2022-07-10T07:06:33;101650.41;;;18.06
72236;BMP280;60146;52.498;13.462;2022-07-10T07:08:59;101648.06;;;18.13
72236;BMP280;60146;52.498;13.462;2022-07-10T07:11:24;101642.78;;;18.30
72236;BMP280;60146;52.498;13.462;2022-07-10T07:13:52;101637.38;;;18.51
72236;BMP280;60146;52.498;13.462;2022-07-10T07:16:18;101636.00;;;18.78
72236;BMP280;60146;52.498;13.462;2022-07-10T07:18:45;101634.91;;;18.96
72236;BMP280;60146;52.498;13.462;2022-07-10T07:21:17;101628.59;;;19.25
72236;BMP280;60146;52.498;13.462;2022-07-10T07:24:02;101635.94;;;19.12
72236;BMP280;60146;52.498;13.462;2022-07-10T07:26:29;101625.94;;;19.25
72236;BMP280;60146;52.498;13.462;2022-07-10T07:28:54;101630.81;;;19.15
72236;BMP280;60146;52.498;13.462;2022-07-10T07:31:20;101627.75;;;19.41
72236;BMP280;60146;52.498;13.462;2022-07-10T07:33:45;101626.09;;;19.73
72236;BMP280;60146;52.498;13.462;2022-07-10T07:36:11;101624.03;;;19.79
72236;BMP280;60146;52.498;13.462;2022-07-10T07:38:36;101628.47;;;19.95
72236;BMP280;60146;52.498;13.462;2022-07-10T07:41:01;101632.13;;;19.90
72236;BMP280;60146;52.498;13.462;2022-07-10T07:43:27;101634.44;;;19.92
72236;BMP280;60146;52.498;13.462;2022-07-10T07:45:52;101638.41;;;20.34
72236;BMP280;60146;52.498;13.462;2022-07-10T07:48:18;101637.69;;;19.97
72236;BMP280;60146;52.498;13.462;2022-07-10T07:50:46;101628.22;;;19.80
72236;BMP280;60146;52.498;13.462;2022-07-10T07:53:12;101631.97;;;19.51
72236;BMP280;60146;52.498;13.462;2022-07-10T07:55:37;101633.50;;;19.88
72236;BMP280;60146;52.498;13.462;2022-07-10T07:58:03;101637.59;;;20.14
72236;BMP280;60146;52.498;13.462;2022-07-10T08:00:29;101624.97;;;20.11
72236;BMP280;60146;52.498;13.462;2022-07-10T08:02:56;101628.06;;;20.13
72236;BMP280;60146;52.498;13.462;2022-07-10T08:05:22;101624.38;;;20.26
72236;BMP280;60146;52.498;13.462;2022-07-10T08:07:53;101631.63;;;20.17
72236;BMP280;60146;52.498;13.462;2022-07-10T08:10:21;101617.22;;;20.18
72236;BMP280;60146;52.498;13.462;2022-07-10T08:12:47;101620.88;;;20.33
72236;BMP280;60146;52.498;13.462;2022-07-10T08:15:15;101610.97;;;20.14
72236;BMP280;60146;52.498;13.462;2022-07-10T08:17:40;101616.53;;;20.01
72236;BMP280;60146;52.498;13.462;2022-07-10T08:20:08;101615.75;;;20.00
72236;BMP280;60146;52.498;13.462;2022-07-10T08:22:35;101611.63;;;20.11
72236;BMP280;60146;52.498;13.462;2022-07-10T08:25:01;101619.44;;;20.56
72236;BMP280;60146;52.498;13.462;2022-07-10T08:27:26;101613.81;;;20.89
72236;BMP280;60146;52.498;13.462;2022-07-10T08:29:51;101616.66;;;21.27
72236;BMP280;60146;52.498;13.462;2022-07-10T08:32:17;101608.91;;;21.22
72236;BMP280;60146;52.498;13.462;2022-07-10T08:34:42;101595.94;;;21.44
72236;BMP280;60146;52.498;13.462;2022-07-10T08:37:08;101598.22;;;21.57
72236;BMP280;60146;52.498;13.462;2022-07-10T08:39:33;101614.59;;;21.33
72236;BMP280;60146;52.498;13.462;2022-07-10T08:42:00;101610.75;;;21.10
72236;BMP280;60146;52.498;13.462;2022-07-10T08:44:26;101602.25;;;20.85
72236;BMP280;60146;52.498;13.462;2022-07-10T08:46:52;101604.31;;;20.80
72236;BMP280;60146;52.498;13.462;2022-07-10T08:49:20;101610.31;;;20.37
72236;BMP280;60146;52.498;13.462;2022-07-10T08:52:02;101617.91;;;20.07
72236;BMP280;60146;52.498;13.462;2022-07-10T08:54:29;101617.19;;;19.98
72236;BMP280;60146;52.498;13.462;2022-07-10T08:56:59;101619.38;;;19.96
72236;BMP280;60146;52.498;13.462;2022-07-10T08:59:25;101630.38;;;19.94
72236;BMP280;60146;52.498;13.462;2022-07-10T09:01:50;101628.47;;;20.23
72236;BMP280;60146;52.498;13.462;2022-07-10T09:04:21;101642.19;;;20.53
72236;BMP280;60146;52.498;13.462;2022-07-10T09:06:47;101626.56;;;20.63
72236;BMP280;60146;52.498;13.462;2022-07-10T09:09:12;101648.44;;;20.57
72236;BMP280;60146;52.498;13.462;2022-07-10T09:11:39;101639.41;;;20.30
72236;BMP280;60146;52.498;13.462;2022-07-10T09:14:09;101635.69;;;20.23
72236;BMP280;60146;52.498;13.462;2022-07-10T09:16:39;101642.06;;;20.30
72236;BMP280;60146;52.498;13.462;2022-07-10T09:19:21;101638.41;;;20.34
72236;BMP280;60146;52.498;13.462;2022-07-10T09:21:55;101639.72;;;20.68
72236;BMP280;60146;52.498;13.462;2022-07-10T09:24:24;101630.28;;;21.02
72236;BMP280;60146;52.498;13.462;2022-07-10T09:29:21;101636.72;;;21.45
72236;BMP280;60146;52.498;13.462;2022-07-10T09:31:50;101633.84;;;21.61
72236;BMP280;60146;52.498;13.462;2022-07-10T09:34:17;101640.41;;;21.52
72236;BMP280;60146;52.498;13.462;2022-07-10T09:36:43;101635.81;;;21.64
72236;BMP280;60146;52.498;13.462;2022-07-10T09:39:08;101638.91;;;22.13
72236;BMP280;60146;52.498;13.462;2022-07-10T09:41:33;101635.13;;;22.52
72236;BMP280;60146;52.498;13.462;2022-07-10T09:44:03;101634.16;;;22.72
72236;BMP280;60146;52.498;13.462;2022-07-10T09:46:34;101629.16;;;23.27
72236;BMP280;60146;52.498;13.462;2022-07-10T09:49:18;101632.25;;;22.99
72236;BMP280;60146;52.498;13.462;2022-07-10T09:51:45;101638.91;;;22.51
72236;BMP280;60146;52.498;13.462;2022-07-10T09:57:18;101631.00;;;22.28
72236;BMP280;60146;52.498;13.462;2022-07-10T09:59:44;101633.25;;;22.03
72236;BMP280;60146;52.498;13.462;2022-07-10T10:02:11;101636.41;;;21.93
72236;BMP280;60146;52.498;13.462;2022-07-10T10:04:37;101636.19;;;21.63
72236;BMP280;60146;52.498;13.462;2022-07-10T10:07:03;101623.63;;;21.52
72236;BMP280;60146;52.498;13.462;2022-07-10T10:09:41;101632.06;;;21.77
72236;BMP280;60146;52.498;13.462;2022-07-10T10:12:12;101627.59;;;21.57
72236;BMP280;60146;52.498;13.462;2022-07-10T10:14:38;101632.06;;;21.54
72236;BMP280;60146;52.498;13.462;2022-07-10T10:17:05;101637.50;;;21.45
72236;BMP280;60146;52.498;13.462;2022-07-10T10:19:30;101632.16;;;21.34
72236;BMP280;60146;52.498;13.462;2022-07-10T10:22:17;101623.94;;;21.62
72236;BMP280;60146;52.498;13.462;2022-07-10T10:24:43;101631.50;;;21.83
72236;BMP280;60146;52.498;13.462;2022-07-10T10:27:09;101634.47;;;22.05
72236;BMP280;60146;52.498;13.462;2022-07-10T10:29:36;101638.59;;;22.14
72236;BMP280;60146;52.498;13.462;2022-07-10T10:32:02;101637.31;;;22.24
72236;BMP280;60146;52.498;13.462;2022-07-10T10:34:39;101640.94;;;22.16
72236;BMP280;60146;52.498;13.462;2022-07-10T10:37:06;101639.31;;;22.38
72236;BMP280;60146;52.498;13.462;2022-07-10T10:39:54;101638.22;;;22.28
72236;BMP280;60146;52.498;13.462;2022-07-10T10:42:40;101643.47;;;22.36
72236;BMP280;60146;52.498;13.462;2022-07-10T10:48:09;101643.75;;;22.73
72236;BMP280;60146;52.498;13.462;2022-07-10T10:50:41;101642.63;;;23.31
72236;BMP280;60146;52.498;13.462;2022-07-10T10:53:24;101640.19;;;23.26
72236;BMP280;60146;52.498;13.462;2022-07-10T10:58:43;101648.91;;;23.53
72236;BMP280;60146;52.498;13.462;2022-07-10T11:06:50;101645.19;;;24.06
72236;BMP280;60146;52.498;13.462;2022-07-10T11:09:30;101635.66;;;23.90
72236;BMP280;60146;52.498;13.462;2022-07-10T11:12:09;101633.69;;;23.72
72236;BMP280;60146;52.498;13.462;2022-07-10T11:14:38;101644.09;;;23.58
72236;BMP280;60146;52.498;13.462;2022-07-10T11:17:05;101639.94;;;23.46
72236;BMP280;60146;52.498;13.462;2022-07-10T11:19:32;101652.69;;;23.07
72236;BMP280;60146;52.498;13.462;2022-07-10T11:22:43;101661.16;;;22.67
72236;BMP280;60146;52.498;13.462;2022-07-10T11:28:04;101656.72;;;22.59
72236;BMP280;60146;52.498;13.462;2022-07-10T11:30:49;101653.22;;;22.70
72236;BMP280;60146;52.498;13.462;2022-07-10T11:33:15;101651.44;;;23.31
72236;BMP280;60146;52.498;13.462;2022-07-10T11:35:44;101648.28;;;24.08
72236;BMP280;60146;52.498;13.462;2022-07-10T11:38:10;101661.50;;;23.83
72236;BMP280;60146;52.498;13.462;2022-07-10T11:40:38;101640.22;;;23.90
72236;BMP280;60146;52.498;13.462;2022-07-10T11:43:04;101654.22;;;23.50
72236;BMP280;60146;52.498;13.462;2022-07-10T11:45:35;101643.47;;;23.98
72236;BMP280;60146;52.498;13.462;2022-07-10T11:48:03;101644.28;;;26.21
72236;BMP280;60146;52.498;13.462;2022-07-10T11:50:35;101650.75;;;28.03
72236;BMP280;60146;52.498;13.462;2022-07-10T11:53:02;101645.09;;;28.35
72236;BMP280;60146;52.498;13.462;2022-07-10T11:55:27;101656.97;;;28.10
72236;BMP280;60146;52.498;13.462;2022-07-10T11:57:54;101659.50;;;27.20
72236;BMP280;60146;52.498;13.462;2022-07-10T12:00:24;101645.53;;;28.64
72236;BMP280;60146;52.498;13.462;2022-07-10T12:02:51;101653.25;;;29.10
72236;BMP280;60146;52.498;13.462;2022-07-10T12:05:52;101649.13;;;27.15
72236;BMP280;60146;52.498;13.462;2022-07-10T12:08:18;101651.72;;;26.31
72236;BMP280;60146;52.498;13.462;2022-07-10T12:10:44;101643.25;;;25.02
72236;BMP280;60146;52.498;13.462;2022-07-10T12:13:12;101650.16;;;24.23
72236;BMP280;60146;52.498;13.462;2022-07-10T12:15:40;101657.94;;;23.94
72236;BMP280;60146;52.498;13.462;2022-07-10T12:18:16;101659.03;;;23.44
72236;BMP280;60146;52.498;13.462;2022-07-10T12:20:42;101663.78;;;23.20
72236;BMP280;60146;52.498;13.462;2022-07-10T12:23:11;101659.03;;;23.29
72236;BMP280;60146;52.498;13.462;2022-07-10T12:25:38;101640.25;;;23.74
72236;BMP280;60146;52.498;13.462;2022-07-10T12:28:03;101657.41;;;24.41
72236;BMP280;60146;52.498;13.462;2022-07-10T12:30:39;101653.13;;;25.17
72236;BMP280;60146;52.498;13.462;2022-07-10T12:33:11;101641.66;;;25.92
72236;BMP280;60146;52.498;13.462;2022-07-10T12:35:56;101644.56;;;25.84
72236;BMP280;60146;52.498;13.462;2022-07-10T12:38:26;101653.97;;;25.21
72236;BMP280;60146;52.498;13.462;2022-07-10T12:41:09;101653.41;;;24.50
72236;BMP280;60146;52.498;13.462;2022-07-10T12:43:35;101651.28;;;24.40
72236;BMP280;60146;52.498;13.462;2022-07-10T12:46:20;101645.97;;;24.07
72236;BMP280;60146;52.498;13.462;2022-07-10T12:49:12;101652.66;;;23.97
72236;BMP280;60146;52.498;13.462;2022-07-10T12:54:05;101656.53;;;24.33
72236;BMP280;60146;52.498;13.462;2022-07-10T12:56:36;101652.88;;;24.81
72236;BMP280;60146;52.498;13.462;2022-07-10T12:59:22;101649.53;;;24.88
72236;BMP280;60146;52.498;13.462;2022-07-10T13:01:48;101648.00;;;25.09
72236;BMP280;60146;52.498;13.462;2022-07-10T13:04:14;101652.53;;;25.52
72236;BMP280;60146;52.498;13.462;2022-07-10T13:06:40;101649.59;;;25.60
72236;BMP280;60146;52.498;13.462;2022-07-10T13:09:22;101653.13;;;26.57
72236;BMP280;60146;52.498;13.462;2022-07-10T13:11:48;101649.47;;;27.77
72236;BMP280;60146;52.498;13.462;2022-07-10T13:14:14;101645.44;;;28.20
72236;BMP280;60146;52.498;13.462;2022-07-10T13:16:39;101649.75;;;28.41
72236;BMP280;60146;52.498;13.462;2022-07-10T13:19:05;101644.00;;;29.04
72236;BMP280;60146;52.498;13.462;2022-07-10T13:21:30;101640.50;;;28.69
72236;BMP280;60146;52.498;13.462;2022-07-10T13:23:55;101647.88;;;27.62
72236;BMP280;60146;52.498;13.462;2022-07-10T13:26:21;101639.63;;;26.89
72236;BMP280;60146;52.498;13.462;2022-07-10T13:28:46;101657.63;;;26.43
72236;BMP280;60146;52.498;13.462;2022-07-10T13:31:11;101649.56;;;26.14
72236;BMP280;60146;52.498;13.462;2022-07-10T13:33:37;101648.53;;;25.39
72236;BMP280;60146;52.498;13.462;2022-07-10T13:36:03;101663.25;;;25.05
72236;BMP280;60146;52.498;13.462;2022-07-10T13:38:28;101655.06;;;24.76
72236;BMP280;60146;52.498;13.462;2022-07-10T13:40:54;101661.16;;;24.95
72236;BMP280;60146;52.498;13.462;2022-07-10T13:43:19;101655.22;;;25.77
72236;BMP280;60146;52.498;13.462;2022-07-10T13:45:46;101651.84;;;26.41
72236;BMP280;60146;52.498;13.462;2022-07-10T13:48:13;101649.13;;;27.22
72236;BMP280;60146;52.498;13.462;2022-07-10T13:50:39;101644.53;;;26.41
72236;BMP280;60146;52.498;13.462;2022-07-10T13:53:05;101641.88;;;25.84
72236;BMP280;60146;52.498;13.462;2022-07-10T13:55:35;101644.34;;;25.67
72236;BMP280;60146;52.498;13.462;2022-07-10T13:58:01;101644.88;;;25.29
72236;BMP280;60146;52.498;13.462;2022-07-10T14:00:26;101644.22;;;25.13
72236;BMP280;60146;52.498;13.462;2022-07-10T14:02:52;101647.66;;;24.88
72236;BMP280;60146;52.498;13.462;2022-07-10T14:05:17;101651.13;;;24.70
72236;BMP280;60146;52.498;13.462;2022-07-10T14:07:43;101638.72;;;24.63